createdAt,value
2022-10-18T00:02:00.849Z,98705.75
2022-10-18T00:04:30.991Z,98707.03
2022-10-18T00:07:01.081Z,98707.38
2022-10-18T00:09:31.182Z,98706.31
2022-10-18T00:12:01.330Z,98701.22
2022-10-18T00:14:31.382Z,98706.28
2022-10-18T00:17:04.128Z,98707.81
2022-10-18T00:19:34.251Z,98713.66
2022-10-18T00:22:04.381Z,98713.13
2022-10-18T00:24:34.539Z,98714.19
2022-10-18T00:27:04.719Z,98712.44
2022-10-18T00:29:34.825Z,98717.78
2022-10-18T00:32:07.974Z,98716.69
2022-10-18T00:34:38.126Z,98715.34
2022-10-18T00:37:08.445Z,98715.34
2022-10-18T00:39:38.685Z,98715.59
2022-10-18T00:42:08.868Z,98721.00
2022-10-18T00:45:18.730Z,98725.66
2022-10-18T00:47:56.871Z,98718.03
2022-10-18T00:50:30.486Z,98719.53
2022-10-18T00:53:05.547Z,98719.28
2022-10-18T00:55:37.204Z,98721.03
2022-10-18T00:58:08.578Z,98717.72
2022-10-18T01:00:40.919Z,98713.09
2022-10-18T01:03:13.886Z,98717.19
2022-10-18T01:05:48.620Z,98715.16
2022-10-18T01:08:45.192Z,98710.81
2022-10-18T01:11:39.156Z,98708.22
2022-10-18T01:14:25.723Z,98707.38
2022-10-18T01:17:02.148Z,98715.75
2022-10-18T01:20:15.249Z,98712.41
2022-10-18T01:22:50.320Z,98713.66
2022-10-18T01:25:35.795Z,98705.75
2022-10-18T01:28:20.559Z,98694.00
2022-10-18T01:31:02.095Z,98699.06
2022-10-18T01:33:41.159Z,98692.06
2022-10-18T01:36:19.394Z,98696.63
2022-10-18T01:38:51.821Z,98697.13
2022-10-18T01:41:25.731Z,98703.19
2022-10-18T01:44:02.542Z,98699.91
2022-10-18T01:46:36.965Z,98706.00
2022-10-18T01:49:08.140Z,98699.13
2022-10-18T01:51:38.361Z,98711.88
2022-10-18T01:54:08.602Z,98707.28
2022-10-18T01:56:45.886Z,98707.00
2022-10-18T01:59:37.667Z,98704.44
2022-10-18T02:02:22.220Z,98708.47
2022-10-18T02:04:58.039Z,98703.38
2022-10-18T02:07:36.278Z,98704.34
2022-10-18T02:12:47.603Z,98691.34
2022-10-18T02:15:22.963Z,98698.69
2022-10-18T02:17:57.427Z,98700.44
2022-10-18T02:20:32.478Z,98704.44
2022-10-18T02:23:04.831Z,98699.06
2022-10-18T02:25:37.758Z,98705.16
2022-10-18T02:28:08.628Z,98712.47
2022-10-18T02:30:42.847Z,98709.38
2022-10-18T02:33:21.684Z,98707.53
2022-10-18T02:36:01.952Z,98708.53
2022-10-18T02:38:34.443Z,98710.56
2022-10-18T02:41:05.222Z,98711.03
2022-10-18T02:43:35.570Z,98703.59
2022-10-18T02:46:06.226Z,98709.97
2022-10-18T02:48:38.940Z,98708.47
2022-10-18T02:51:09.512Z,98709.50
2022-10-18T02:53:39.583Z,98717.50
2022-10-18T02:56:10.392Z,98713.94
2022-10-18T02:58:40.468Z,98721.31
2022-10-18T03:01:10.556Z,98728.63
2022-10-18T03:03:43.340Z,98716.69
2022-10-18T03:06:13.480Z,98717.25
2022-10-18T03:08:43.630Z,98706.16
2022-10-18T03:11:14.021Z,98701.38
2022-10-18T03:13:44.258Z,98713.13
2022-10-18T03:16:15.093Z,98708.38
2022-10-18T03:18:47.575Z,98715.03
2022-10-18T03:21:17.704Z,98720.88
2022-10-18T03:23:47.854Z,98714.03
2022-10-18T03:26:17.952Z,98717.09
2022-10-18T03:28:48.169Z,98708.50
2022-10-18T03:31:18.550Z,98708.78
2022-10-18T03:33:51.347Z,98713.66
2022-10-18T03:36:21.532Z,98713.72
2022-10-18T03:38:51.574Z,98715.53
2022-10-18T03:41:21.693Z,98724.44
2022-10-18T03:43:51.908Z,98714.50
2022-10-18T03:46:22.038Z,98721.91
2022-10-18T03:48:54.730Z,98716.59
2022-10-18T03:51:24.872Z,98721.69
2022-10-18T03:53:54.992Z,98719.94
2022-10-18T03:56:25.224Z,98716.94
2022-10-18T03:58:55.541Z,98724.63
2022-10-18T04:01:25.675Z,98719.25
2022-10-18T04:03:58.463Z,98726.94
2022-10-18T04:06:28.854Z,98719.78
2022-10-18T04:08:59.156Z,98726.41
2022-10-18T04:11:29.382Z,98713.47
2022-10-18T04:13:59.598Z,98719.63
2022-10-18T04:16:29.875Z,98713.84
2022-10-18T04:19:02.590Z,98720.94
2022-10-18T04:21:32.682Z,98710.81
2022-10-18T04:24:02.759Z,98705.97
2022-10-18T04:26:32.836Z,98703.94
2022-10-18T04:29:02.939Z,98701.94
2022-10-18T04:31:33.157Z,98699.13
2022-10-18T04:34:06.352Z,98702.69
2022-10-18T04:36:36.431Z,98704.44
2022-10-18T04:39:06.834Z,98710.53
2022-10-18T04:41:36.890Z,98707.25
2022-10-18T04:44:07.218Z,98705.50
2022-10-18T04:46:37.609Z,98700.91
2022-10-18T04:49:10.360Z,98699.19
2022-10-18T04:51:40.420Z,98700.91
2022-10-18T04:54:10.517Z,98697.09
2022-10-18T04:56:40.594Z,98680.03
2022-10-18T04:59:10.625Z,98672.06
2022-10-18T05:01:40.752Z,98679.47
2022-10-18T05:04:13.715Z,98676.94
2022-10-18T05:06:43.830Z,98671.09
2022-10-18T05:09:13.989Z,98665.22
2022-10-18T05:11:44.138Z,98667.78
2022-10-18T05:14:14.251Z,98651.75
2022-10-18T05:16:44.316Z,98649.72
2022-10-18T05:19:17.067Z,98647.97
2022-10-18T05:21:47.266Z,98649.22
2022-10-18T05:24:17.468Z,98647.53
2022-10-18T05:26:47.558Z,98656.19
2022-10-18T05:29:17.706Z,98660.25
2022-10-18T05:31:48.010Z,98653.38
2022-10-18T05:34:22.622Z,98654.38
2022-10-18T05:36:52.699Z,98662.28
2022-10-18T05:39:22.742Z,98652.41
2022-10-18T05:41:52.762Z,98652.66
2022-10-18T05:44:23.082Z,98647.06
2022-10-18T05:46:53.250Z,98639.69
2022-10-18T05:49:26.044Z,98634.59
2022-10-18T05:51:56.226Z,98640.19
2022-10-18T05:54:26.325Z,98649.66
2022-10-18T05:56:56.350Z,98663.59
2022-10-18T05:59:26.528Z,98658.88
2022-10-18T06:01:56.608Z,98658.88
2022-10-18T06:04:29.356Z,98643.47
2022-10-18T06:06:59.695Z,98642.19
2022-10-18T06:09:30.788Z,98648.34
2022-10-18T06:12:00.971Z,98655.53
2022-10-18T06:14:31.042Z,98643.56
2022-10-18T06:17:01.134Z,98646.84
2022-10-18T06:19:34.044Z,98650.19
2022-10-18T06:22:04.180Z,98651.22
2022-10-18T06:24:34.338Z,98652.00
2022-10-18T06:27:08.342Z,98649.72
2022-10-18T06:29:38.614Z,98655.84
2022-10-18T06:32:10.290Z,98661.41
2022-10-18T06:34:43.091Z,98662.44
2022-10-18T06:37:13.192Z,98664.22
2022-10-18T06:39:43.248Z,98664.78
2022-10-18T06:42:13.315Z,98657.41
2022-10-18T06:44:43.382Z,98655.66
2022-10-18T06:47:13.490Z,98652.31
2022-10-18T06:49:46.266Z,98656.19
2022-10-18T06:52:16.339Z,98650.56
2022-10-18T06:54:46.650Z,98648.53
2022-10-18T06:57:16.761Z,98650.34
2022-10-18T06:59:46.796Z,98659.78
2022-10-18T07:02:19.478Z,98665.16
2022-10-18T07:04:52.220Z,98644.28
2022-10-18T07:07:22.366Z,98646.06
2022-10-18T07:09:52.505Z,98647.81
2022-10-18T07:12:22.665Z,98646.78
2022-10-18T07:14:52.783Z,98638.63
2022-10-18T07:17:22.874Z,98645.31
2022-10-18T07:19:55.784Z,98649.41
2022-10-18T07:22:30.071Z,98661.91
2022-10-18T07:25:00.410Z,98670.59
2022-10-18T07:27:30.939Z,98681.34
2022-10-18T07:30:01.048Z,98666.09
2022-10-18T07:32:31.212Z,98664.06
2022-10-18T07:35:03.982Z,98644.28
2022-10-18T07:37:34.538Z,98639.72
2022-10-18T07:40:04.576Z,98637.41
2022-10-18T07:42:34.630Z,98623.91
2022-10-18T07:45:04.775Z,98618.81
2022-10-18T07:47:35.418Z,98609.13
2022-10-18T07:50:08.964Z,98604.56
2022-10-18T07:52:39.152Z,98596.38
2022-10-18T07:55:10.265Z,98607.91
2022-10-18T07:57:40.434Z,98603.59
2022-10-18T08:00:12.846Z,98598.06
2022-10-18T08:02:42.959Z,98601.91
2022-10-18T08:05:15.706Z,98592.03
2022-10-18T08:07:45.920Z,98590.75
2022-10-18T08:10:16.152Z,98586.66
2022-10-18T08:12:46.411Z,98586.91
2022-10-18T08:15:16.575Z,98585.63
2022-10-18T08:17:46.637Z,98580.78
2022-10-18T08:20:30.299Z,98575.41
2022-10-18T08:23:00.942Z,98577.72
2022-10-18T08:25:31.437Z,98570.31
2022-10-18T08:28:02.108Z,98570.06
2022-10-18T08:30:32.052Z,98560.84
2022-10-18T08:33:02.134Z,98557.28
2022-10-18T08:35:35.357Z,98563.94
2022-10-18T08:38:05.906Z,98565.22
2022-10-18T08:40:37.549Z,98564.44
2022-10-18T08:43:12.685Z,98556.78
2022-10-18T08:45:44.427Z,98546.06
2022-10-18T08:48:24.699Z,98556.25
2022-10-18T08:50:59.408Z,98552.84
2022-10-18T08:53:39.288Z,98557.84
2022-10-18T08:56:15.011Z,98540.34
2022-10-18T08:58:46.990Z,98543.16
2022-10-18T09:01:39.319Z,98541.72
2022-10-18T09:04:31.424Z,98538.38
2022-10-18T09:07:25.603Z,98539.91
2022-10-18T09:10:03.120Z,98540.75
2022-10-18T09:12:59.921Z,98545.50
2022-10-18T09:15:42.003Z,98534.94
2022-10-18T09:18:36.257Z,98536.06
2022-10-18T09:21:20.411Z,98523.31
2022-10-18T09:24:02.136Z,98541.72
2022-10-18T09:26:43.892Z,98552.44
2022-10-18T09:29:43.111Z,98547.25
2022-10-18T09:32:30.431Z,98545.22
2022-10-18T09:35:06.434Z,98550.56
2022-10-18T09:37:38.155Z,98542.00
2022-10-18T09:40:21.423Z,98539.13
2022-10-18T09:42:58.783Z,98552.63
2022-10-18T09:45:33.152Z,98547.56
2022-10-18T09:48:11.408Z,98564.81
2022-10-18T09:50:45.542Z,98576.03
2022-10-18T09:53:23.280Z,98588.41
2022-10-18T09:56:04.372Z,98585.75
2022-10-18T09:58:46.492Z,98590.28
2022-10-18T10:01:21.309Z,98602.03
2022-10-18T10:03:51.639Z,98605.50
2022-10-18T10:06:29.716Z,98616.16
2022-10-18T10:09:04.548Z,98622.94
2022-10-18T10:11:40.704Z,98624.53
2022-10-18T10:16:51.795Z,98634.34
2022-10-18T10:19:26.650Z,98635.91
2022-10-18T10:22:09.988Z,98641.78
2022-10-18T10:24:52.694Z,98634.63
2022-10-18T10:27:34.047Z,98644.53
2022-10-18T10:30:07.330Z,98646.81
2022-10-18T10:32:50.230Z,98654.78
2022-10-18T10:35:41.452Z,98656.53
2022-10-18T10:38:28.160Z,98654.75
2022-10-18T10:40:59.381Z,98652.97
2022-10-18T10:43:39.985Z,98656.28
2022-10-18T10:46:13.540Z,98646.81
2022-10-18T10:48:57.036Z,98651.13
2022-10-18T10:51:37.678Z,98657.50
2022-10-18T10:54:13.262Z,98661.34
2022-10-18T10:56:59.366Z,98661.84
2022-10-18T11:02:24.273Z,98658.78
2022-10-18T11:04:56.545Z,98660.59
2022-10-18T11:07:34.190Z,98660.06
2022-10-18T11:10:09.282Z,98662.38
2022-10-18T11:12:42.837Z,98657.00
2022-10-18T11:15:25.667Z,98663.91
2022-10-18T11:18:19.652Z,98667.94
2022-10-18T11:20:56.163Z,98676.38
2022-10-18T11:23:34.859Z,98682.47
2022-10-18T11:26:28.040Z,98676.34
2022-10-18T11:29:16.316Z,98682.22
2022-10-18T11:32:01.709Z,98688.59
2022-10-18T11:34:52.104Z,98677.91
2022-10-18T11:37:41.346Z,98676.09
2022-10-18T11:40:31.859Z,98678.19
2022-10-18T11:43:10.144Z,98672.06
2022-10-18T11:45:48.745Z,98675.66
2022-10-18T11:48:44.292Z,98669.81
2022-10-18T11:51:34.197Z,98668.53
2022-10-18T11:54:45.059Z,98667.28
2022-10-18T11:57:36.314Z,98673.63
2022-10-18T12:03:35.885Z,98670.09
2022-10-18T12:06:10.153Z,98678.28
2022-10-18T12:08:46.437Z,98675.47
2022-10-18T12:11:20.962Z,98688.19
2022-10-18T12:13:57.828Z,98687.13
2022-10-18T12:16:50.378Z,98698.06
2022-10-18T12:19:29.049Z,98703.63
2022-10-18T12:22:17.857Z,98699.53
2022-10-18T12:24:47.973Z,98693.91
2022-10-18T12:27:19.995Z,98690.63
2022-10-18T12:29:58.702Z,98686.84
2022-10-18T12:32:35.114Z,98692.75
2022-10-18T12:35:15.557Z,98688.13
2022-10-18T12:38:06.001Z,98703.19
2022-10-18T12:40:43.589Z,98704.19
2022-10-18T12:43:21.494Z,98699.56
2022-10-18T12:45:56.978Z,98702.63
2022-10-18T12:48:35.646Z,98704.88
2022-10-18T12:51:17.791Z,98692.13
2022-10-18T12:53:50.053Z,98699.81
2022-10-18T12:56:42.015Z,98695.69
2022-10-18T12:59:54.020Z,98707.69
2022-10-18T13:02:34.985Z,98707.19
2022-10-18T13:05:57.952Z,98712.28
2022-10-18T13:08:46.107Z,98715.59
2022-10-18T13:11:36.982Z,98712.53
2022-10-18T13:14:34.890Z,98705.16
2022-10-18T13:17:16.353Z,98708.25
2022-10-18T13:20:24.124Z,98706.69
2022-10-18T13:23:05.705Z,98697.25
2022-10-18T13:25:57.511Z,98700.06
2022-10-18T13:28:37.162Z,98698.28
2022-10-18T13:31:25.822Z,98697.75
2022-10-18T13:33:56.210Z,98687.84
2022-10-18T13:36:29.508Z,98675.13
2022-10-18T13:39:06.670Z,98682.03
2022-10-18T13:42:37.176Z,98687.91
2022-10-18T13:45:56.248Z,98693.03
2022-10-18T13:48:52.167Z,98693.81
2022-10-18T13:51:48.066Z,98700.94
2022-10-18T13:54:40.797Z,98694.34
2022-10-18T13:57:25.372Z,98697.94
2022-10-18T14:00:30.357Z,98699.72
2022-10-18T14:03:55.510Z,98703.81
2022-10-18T14:06:23.417Z,98712.25
2022-10-18T14:09:09.454Z,98707.13
2022-10-18T14:11:53.910Z,98710.16
2022-10-18T14:14:34.552Z,98713.25
2022-10-18T14:17:26.115Z,98715.78
2022-10-18T14:20:06.341Z,98710.19
2022-10-18T14:22:43.402Z,98711.22
2022-10-18T14:25:25.517Z,98712.00
2022-10-18T14:28:16.034Z,98713.56
2022-10-18T14:30:58.055Z,98716.63
2022-10-18T14:33:36.427Z,98711.78
2022-10-18T14:36:17.588Z,98711.28
2022-10-18T14:38:54.936Z,98733.22
2022-10-18T14:41:30.144Z,98733.72
2022-10-18T14:44:21.520Z,98734.47
2022-10-18T14:46:55.089Z,98736.78
2022-10-18T14:49:25.230Z,98724.00
2022-10-18T14:52:00.941Z,98731.66
2022-10-18T14:54:35.461Z,98729.63
2022-10-18T14:57:06.730Z,98732.69
2022-10-18T14:59:45.285Z,98727.06
2022-10-18T15:02:18.195Z,98727.31
2022-10-18T15:04:49.778Z,98729.59
2022-10-18T15:07:24.332Z,98741.59
2022-10-18T15:09:55.230Z,98738.50
2022-10-18T15:12:25.698Z,98736.72
2022-10-18T15:14:56.613Z,98740.75
2022-10-18T15:17:32.880Z,98741.50
2022-10-18T15:20:20.070Z,98748.38
2022-10-18T15:22:52.790Z,98751.66
2022-10-18T15:25:31.519Z,98748.06
2022-10-18T15:28:02.863Z,98747.00
2022-10-18T15:30:43.060Z,98744.94
2022-10-18T15:33:27.483Z,98744.63
2022-10-18T15:35:57.788Z,98748.19
2022-10-18T15:38:36.787Z,98750.47
2022-10-18T15:41:49.112Z,98752.97
2022-10-18T15:44:25.440Z,98753.22
2022-10-18T15:46:59.265Z,98757.25
2022-10-18T15:49:55.387Z,98756.91
2022-10-18T15:52:42.099Z,98758.72
2022-10-18T15:55:52.477Z,98752.81
2022-10-18T15:58:27.103Z,98756.06
2022-10-18T16:01:01.797Z,98767.50
2022-10-18T16:03:32.724Z,98751.94
2022-10-18T16:06:06.884Z,98761.38
2022-10-18T16:08:43.301Z,98758.28
2022-10-18T16:11:21.013Z,98766.91
2022-10-18T16:13:53.044Z,98768.41
2022-10-18T16:16:27.941Z,98772.69
2022-10-18T16:18:59.090Z,98774.97
2022-10-18T16:21:32.569Z,98776.22
2022-10-18T16:24:03.057Z,98777.72
2022-10-18T16:26:36.194Z,98776.38
2022-10-18T16:29:07.736Z,98782.22
2022-10-18T16:31:38.408Z,98778.59
2022-10-18T16:34:10.957Z,98787.72
2022-10-18T16:36:41.209Z,98786.34
2022-10-18T16:39:18.921Z,98791.63
2022-10-18T16:41:52.193Z,98791.84
2022-10-18T16:44:22.354Z,98795.31
2022-10-18T16:46:53.984Z,98789.47
2022-10-18T16:49:29.093Z,98790.66
2022-10-18T16:53:56.575Z,98790.28
2022-10-18T16:56:30.661Z,98800.94
2022-10-18T16:59:02.526Z,98792.25
2022-10-18T17:01:32.773Z,98793.72
2022-10-18T17:04:02.950Z,98793.72
2022-10-18T17:06:36.186Z,98783.38
2022-10-18T17:09:08.948Z,98783.88
2022-10-18T17:11:39.106Z,98798.84
2022-10-18T17:14:09.366Z,98797.59
2022-10-18T17:16:40.783Z,98805.16
2022-10-18T17:19:14.943Z,98812.97
2022-10-18T17:21:45.112Z,98810.94
2022-10-18T17:24:17.972Z,98813.38
2022-10-18T17:26:48.220Z,98821.16
2022-10-18T17:29:18.350Z,98817.19
2022-10-18T17:31:48.527Z,98824.03
2022-10-18T17:34:21.412Z,98830.88
2022-10-18T17:36:51.896Z,98817.53
2022-10-18T17:39:24.710Z,98822.34
2022-10-18T17:41:55.573Z,98822.69
2022-10-18T17:44:25.499Z,98828.09
2022-10-18T17:46:55.937Z,98829.13
2022-10-18T17:49:26.144Z,98826.00
2022-10-18T17:51:56.361Z,98831.28
2022-10-18T17:54:29.171Z,98833.31
2022-10-18T17:56:59.430Z,98824.63
2022-10-18T17:59:29.583Z,98831.72
2022-10-18T18:01:59.749Z,98822.28
2022-10-18T18:04:29.876Z,98827.03
2022-10-18T18:07:00.037Z,98832.25
2022-10-18T18:09:33.568Z,98831.28
2022-10-18T18:12:03.949Z,98835.19
2022-10-18T18:14:34.084Z,98835.47
2022-10-18T18:17:04.397Z,98829.31
2022-10-18T18:19:34.568Z,98823.72
2022-10-18T18:22:05.407Z,98822.88
2022-10-18T18:24:37.943Z,98829.16
2022-10-18T18:27:08.711Z,98830.00
2022-10-18T18:29:38.812Z,98823.84
2022-10-18T18:32:09.410Z,98821.63
2022-10-18T18:34:40.805Z,98821.13
2022-10-18T18:37:12.116Z,98822.41
2022-10-18T18:39:45.113Z,98821.47
2022-10-18T18:42:15.337Z,98823.25
2022-10-18T18:44:46.162Z,98824.50
2022-10-18T18:50:07.261Z,98826.13
2022-10-18T18:52:37.139Z,98814.56
2022-10-18T18:55:11.196Z,98817.91
2022-10-18T18:57:41.431Z,98812.25
2022-10-18T19:00:13.821Z,98815.53
2022-10-18T19:02:44.125Z,98819.22
2022-10-18T19:05:14.286Z,98813.25
2022-10-18T19:07:44.499Z,98814.16
2022-10-18T19:10:17.452Z,98821.97
2022-10-18T19:12:47.622Z,98815.72
2022-10-18T19:15:17.900Z,98816.38
2022-10-18T19:17:48.553Z,98817.66
2022-10-18T19:20:19.310Z,98813.88
2022-10-18T19:22:49.408Z,98812.41
2022-10-18T19:25:24.790Z,98808.56
2022-10-18T19:27:57.228Z,98820.94
2022-10-18T19:30:27.592Z,98824.09
2022-10-18T19:33:04.215Z,98818.84
2022-10-18T19:35:34.400Z,98822.31
2022-10-18T19:38:04.779Z,98820.97
2022-10-18T19:40:38.041Z,98825.50
2022-10-18T19:43:08.364Z,98828.00
2022-10-18T19:45:38.593Z,98831.09
2022-10-18T19:48:13.215Z,98835.00
2022-10-18T19:50:43.799Z,98833.91
2022-10-18T19:53:14.054Z,98845.97
2022-10-18T19:55:47.049Z,98846.81
2022-10-18T19:58:17.243Z,98850.44
2022-10-18T20:00:47.367Z,98843.41
2022-10-18T20:03:17.539Z,98841.44
2022-10-18T20:05:47.724Z,98844.75
2022-10-18T20:08:17.834Z,98846.69
2022-10-18T20:10:50.562Z,98844.44
2022-10-18T20:13:21.181Z,98841.94
2022-10-18T20:15:53.442Z,98850.25
2022-10-18T20:18:23.944Z,98849.00
2022-10-18T20:20:54.195Z,98848.31
2022-10-18T20:23:24.608Z,98845.00
2022-10-18T20:26:07.191Z,98852.72
2022-10-18T20:28:38.204Z,98851.44
2022-10-18T20:31:11.623Z,98855.72
2022-10-18T20:33:42.837Z,98858.78
2022-10-18T20:36:15.270Z,98863.69
2022-10-18T20:38:47.913Z,98863.91
2022-10-18T20:41:24.086Z,98852.22
2022-10-18T20:43:54.834Z,98858.03
2022-10-18T20:46:25.785Z,98856.69
2022-10-18T20:48:57.276Z,98847.78
2022-10-18T20:51:27.759Z,98855.78
2022-10-18T20:53:58.042Z,98855.03
2022-10-18T20:56:33.645Z,98854.13
2022-10-18T20:59:06.280Z,98848.50
2022-10-18T21:01:37.916Z,98842.44
2022-10-18T21:04:10.973Z,98838.03
2022-10-18T21:06:43.238Z,98837.66
2022-10-18T21:09:16.145Z,98839.69
2022-10-18T21:11:51.574Z,98838.31
2022-10-18T21:14:24.302Z,98846.50
2022-10-18T21:16:55.492Z,98848.91
2022-10-18T21:19:28.155Z,98847.78
2022-10-18T21:22:00.580Z,98850.59
2022-10-18T21:24:30.699Z,98849.91
2022-10-18T21:27:03.484Z,98845.50
2022-10-18T21:29:33.713Z,98845.78
2022-10-18T21:32:03.778Z,98841.44
2022-10-18T21:34:34.079Z,98840.09
2022-10-18T21:37:04.325Z,98852.91
2022-10-18T21:39:34.371Z,98855.41
2022-10-18T21:42:07.310Z,98847.63
2022-10-18T21:44:37.915Z,98838.19
2022-10-18T21:47:08.124Z,98835.50
2022-10-18T21:49:38.285Z,98836.28
2022-10-18T21:52:08.478Z,98838.16
2022-10-18T21:54:38.830Z,98834.03
2022-10-18T21:57:11.608Z,98829.22
2022-10-18T21:59:41.752Z,98836.94
2022-10-18T22:02:11.956Z,98839.41
2022-10-18T22:04:44.259Z,98846.06
2022-10-18T22:07:14.466Z,98837.22
2022-10-18T22:09:44.764Z,98837.69
2022-10-18T22:12:17.688Z,98835.38
2022-10-18T22:14:47.812Z,98827.00
2022-10-18T22:17:18.074Z,98825.06
2022-10-18T22:19:48.308Z,98824.13
2022-10-18T22:22:18.590Z,98834.78
2022-10-18T22:24:48.644Z,98829.88
2022-10-18T22:27:21.437Z,98828.25
2022-10-18T22:29:52.219Z,98829.31
2022-10-18T22:32:22.337Z,98834.44
2022-10-18T22:34:52.615Z,98838.09
2022-10-18T22:37:22.765Z,98837.31
2022-10-18T22:39:52.834Z,98828.34
2022-10-18T22:42:25.564Z,98814.19
2022-10-18T22:44:55.798Z,98821.72
2022-10-18T22:47:26.395Z,98822.28
2022-10-18T22:49:56.608Z,98832.88
2022-10-18T22:52:26.871Z,98832.03
2022-10-18T22:54:57.107Z,98836.06
2022-10-18T22:57:29.952Z,98827.47
2022-10-18T23:00:00.031Z,98831.03
2022-10-18T23:02:30.366Z,98837.88
2022-10-18T23:05:00.711Z,98825.44
2022-10-18T23:07:30.911Z,98824.88
2022-10-18T23:10:01.019Z,98828.94
2022-10-18T23:12:34.170Z,98837.22
2022-10-18T23:15:04.424Z,98832.78
2022-10-18T23:17:34.837Z,98835.94
2022-10-18T23:20:05.225Z,98842.22
2022-10-18T23:22:35.886Z,98827.66
2022-10-18T23:25:06.796Z,98842.41
2022-10-18T23:27:39.540Z,98834.03
2022-10-18T23:30:11.478Z,98837.78
2022-10-18T23:32:42.332Z,98846.03
2022-10-18T23:35:12.582Z,98844.97
2022-10-18T23:37:42.767Z,98853.88
2022-10-18T23:40:14.355Z,98858.69
2022-10-18T23:42:47.074Z,98857.50
2022-10-18T23:45:17.287Z,98848.84
2022-10-18T23:47:47.520Z,98850.09
2022-10-18T23:50:17.866Z,98846.06
2022-10-18T23:52:48.004Z,98844.06
2022-10-18T23:55:18.325Z,98846.72
2022-10-18T23:57:51.153Z,98857.88
